Time;durP1;ratioP1;P1;durP2;ratioP2;P2;SDS_P1;SDS_P2;PMS_P1;PMS_P2;Temp;Humidity;BMP_temperature;BMP_pressure;BME280_temperature;BME280_humidity;BME280_pressure;Samples;Min_cycle;Max_cycle;Signal;HPM_P1;HPM_P2
2022/11/27 00:01:14;;;;;;;19.10;5.73;;;;;;;14.64;53.49;102461.78;5047663;28;20083;-69
2022/11/27 00:03:41;;;;;;;21.70;6.33;;;;;;;13.88;55.20;102458.22;5048802;28;20044;-69
2022/11/27 00:06:07;;;;;;;13.70;5.73;;;;;;;13.23;55.63;102439.59;5048942;28;20067;-69
2022/11/27 00:08:33;;;;;;;12.77;4.80;;;;;;;13.85;55.32;102429.31;5048192;28;20394;-70
2022/11/27 00:11:09;;;;;;;17.70;5.93;;;;;;;13.61;55.82;102436.25;5048648;28;20031;-70
2022/11/27 00:13:35;;;;;;;14.60;5.17;;;;;;;13.52;56.23;102423.09;5049418;28;20025;-69
2022/11/27 00:16:01;;;;;;;18.53;5.60;;;;;;;13.38;57.83;102426.56;5047625;28;20031;-69
2022/11/27 00:18:26;;;;;;;15.53;5.03;;;;;;;13.58;55.75;102425.75;5050317;28;20545;-69
2022/11/27 00:20:52;;;;;;;16.43;5.07;;;;;;;13.80;54.75;102420.53;5048195;28;20027;-69
2022/11/27 00:23:17;;;;;;;17.37;5.50;;;;;;;13.52;56.03;102415.22;5048179;28;20028;-69
2022/11/27 00:25:52;;;;;;;18.10;5.27;;;;;;;13.73;55.59;102410.00;5049129;28;20021;-69
2022/11/27 00:28:19;;;;;;;19.50;4.97;;;;;;;13.43;56.74;102404.69;5048676;28;20092;-69
2022/11/27 00:30:44;;;;;;;12.13;4.80;;;;;;;13.57;55.47;102409.13;5046564;28;20032;-69
2022/11/27 00:33:10;;;;;;;11.70;4.57;;;;;;;13.48;56.03;102408.22;5049510;28;20024;-69
2022/11/27 00:35:37;;;;;;;14.73;4.47;;;;;;;14.01;53.95;102410.06;5049065;28;20055;-69
2022/11/27 00:38:03;;;;;;;21.57;5.77;;;;;;;14.16;54.06;102410.94;5048955;28;20074;-69
2022/11/27 00:40:28;;;;;;;21.40;5.00;;;;;;;13.47;55.35;102407.31;5048926;28;20028;-69
2022/11/27 00:42:54;;;;;;;11.43;4.70;;;;;;;13.71;54.89;102406.50;5047820;28;20036;-69
2022/11/27 00:45:19;;;;;;;18.27;5.33;;;;;;;14.10;53.22;102403.06;5048391;28;20028;-69
2022/11/27 00:47:44;;;;;;;15.00;4.80;;;;;;;13.80;53.86;102394.25;5048723;28;20028;-69
2022/11/27 00:50:10;;;;;;;17.30;5.80;;;;;;;14.34;53.00;102387.25;5047673;28;20029;-69
2022/11/27 00:52:35;;;;;;;21.87;5.20;;;;;;;14.41;52.71;102378.47;5049801;28;20100;-69
2022/11/27 00:55:01;;;;;;;13.23;5.20;;;;;;;14.47;51.64;102382.00;5064362;28;20490;-69
2022/11/27 00:57:26;;;;;;;22.67;5.03;;;;;;;14.03;52.50;102382.00;5048276;28;20029;-70
2022/11/27 00:59:51;;;;;;;19.37;5.53;;;;;;;13.66;55.08;102386.34;5048241;28;20028;-70
2022/11/27 01:02:17;;;;;;;13.00;4.40;;;;;;;13.80;54.02;102391.63;5048488;28;20052;-69
2022/11/27 01:04:46;;;;;;;12.27;4.53;;;;;;;14.19;52.55;102396.03;5049448;28;20082;-70
2022/11/27 01:07:13;;;;;;;18.00;4.80;;;;;;;13.65;55.48;102390.72;5047119;28;20055;-69
2022/11/27 01:09:38;;;;;;;13.23;5.27;;;;;;;14.37;53.64;102373.22;5081486;28;20028;-69
2022/11/27 01:12:04;;;;;;;20.23;4.40;;;;;;;14.00;52.83;102371.50;5047135;28;20033;-69
2022/11/27 01:14:29;;;;;;;14.70;4.47;;;;;;;14.34;53.19;102363.59;5047790;28;20029;-69
2022/11/27 01:16:55;;;;;;;13.93;4.23;;;;;;;14.54;52.33;102365.31;5048058;28;20025;-69
2022/11/27 01:19:20;;;;;;;21.27;4.50;;;;;;;14.73;51.17;102359.13;5049118;28;20025;-69
2022/11/27 01:21:46;;;;;;;12.37;3.83;;;;;;;13.98;54.11;102373.22;5047177;28;20040;-70
2022/11/27 01:24:13;;;;;;;16.43;4.93;;;;;;;13.99;53.88;102375.00;5048844;28;20031;-69
2022/11/27 01:26:39;;;;;;;15.03;3.87;;;;;;;14.47;52.12;102353.06;5048238;28;20031;-69
2022/11/27 01:29:05;;;;;;;10.80;3.90;;;;;;;14.68;51.93;102346.88;5047578;28;20024;-69
2022/11/27 01:31:32;;;;;;;9.80;3.83;;;;;;;14.20;52.92;102344.31;5047523;28;20222;-69
2022/11/27 01:34:01;;;;;;;19.03;5.53;;;;;;;14.75;50.79;102331.06;5047395;28;20052;-69
2022/11/27 01:36:27;;;;;;;19.30;4.33;;;;;;;14.41;52.00;102330.22;5048381;28;20110;-69
2022/11/27 01:38:53;;;;;;;12.97;3.40;;;;;;;14.54;51.67;102325.84;5047519;28;20025;-69
2022/11/27 01:41:24;;;;;;;12.43;4.03;;;;;;;14.21;52.16;102330.28;5047171;28;20421;-69
2022/11/27 01:43:53;;;;;;;11.20;5.10;;;;;;;14.38;52.19;102330.25;5047520;28;20134;-69
2022/11/27 01:46:41;;;;;;;14.27;4.07;;;;;;;15.04;49.69;102321.28;5049188;28;20047;-69
2022/11/27 01:49:09;;;;;;;12.60;4.60;;;;;;;13.87;52.42;102311.91;5047920;28;20040;-69
2022/11/27 01:51:38;;;;;;;15.37;3.97;;;;;;;13.94;52.97;102308.38;5045994;28;20080;-69
2022/11/27 01:54:04;;;;;;;15.23;4.03;;;;;;;14.46;51.50;102303.94;5052792;28;20021;-69
2022/11/27 01:56:30;;;;;;;13.00;3.60;;;;;;;13.88;52.14;102297.91;5051933;28;20389;-69
2022/11/27 01:58:58;;;;;;;13.10;4.00;;;;;;;13.68;54.06;102304.03;5052203;28;20021;-69
2022/11/27 02:01:24;;;;;;;17.13;4.23;;;;;;;13.25;53.97;102311.81;5050655;28;20032;-69
2022/11/27 02:03:52;;;;;;;13.33;4.03;;;;;;;13.53;54.13;102306.63;5051698;28;20045;-70
2022/11/27 02:06:17;;;;;;;17.80;4.33;;;;;;;13.74;53.11;102295.28;5052146;28;20039;-69
2022/11/27 02:08:43;;;;;;;16.60;4.00;;;;;;;14.21;51.32;102275.94;5050997;28;20569;-69
2022/11/27 02:11:38;;;;;;;13.90;3.77;;;;;;;13.82;53.58;102277.75;5049898;28;20035;-70
2022/11/27 02:14:16;;;;;;;13.13;4.00;;;;;;;14.47;51.66;102275.00;5033425;28;20044;-69
2022/11/27 02:16:50;;;;;;;13.63;4.07;;;;;;;14.19;51.03;102277.69;5046418;28;20160;-69
2022/11/27 02:19:44;;;;;;;12.10;3.87;;;;;;;14.03;52.92;102283.88;5033602;28;20104;-69
2022/11/27 02:22:22;;;;;;;14.27;4.30;;;;;;;13.92;52.41;102294.38;5033644;28;20407;-69
2022/11/27 02:25:20;;;;;;;15.57;4.07;;;;;;;13.78;52.87;102291.78;5051347;28;20612;-69
2022/11/27 02:28:06;;;;;;;12.60;3.80;;;;;;;14.26;51.81;102283.81;5041042;28;20033;-69
2022/11/27 02:30:40;;;;;;;12.17;3.50;;;;;;;14.28;51.54;102289.94;5067469;28;20075;-69
2022/11/27 02:33:10;;;;;;;12.90;3.77;;;;;;;14.23;50.91;102291.69;5052654;28;20024;-69
2022/11/27 02:35:46;;;;;;;12.83;3.67;;;;;;;14.57;51.04;102288.97;5049554;28;20111;-69
2022/11/27 02:38:19;;;;;;;11.60;4.10;;;;;;;14.04;52.29;102299.63;5048564;28;20120;-69
2022/11/27 02:41:03;;;;;;;11.17;4.20;;;;;;;15.27;49.00;102297.44;5051714;28;20033;-69
2022/11/27 02:43:37;;;;;;;11.70;4.23;;;;;;;14.92;49.66;102291.50;5049477;28;20131;-69
2022/11/27 02:46:05;;;;;;;9.13;4.17;;;;;;;14.59;49.76;102290.72;5052034;28;20382;-69
2022/11/27 02:48:36;;;;;;;11.77;3.73;;;;;;;14.49;50.83;102280.25;5049695;28;20087;-69
2022/11/27 02:51:04;;;;;;;20.60;4.03;;;;;;;14.67;50.17;102280.22;5049775;28;20043;-69
2022/11/27 02:53:41;;;;;;;15.37;4.00;;;;;;;14.84;50.19;102272.25;5050266;28;20037;-69
2022/11/27 02:56:11;;;;;;;21.60;3.37;;;;;;;14.13;51.17;102264.56;5050939;28;20367;-69
2022/11/27 02:58:38;;;;;;;11.13;4.00;;;;;;;14.83;49.91;102266.97;5049245;28;20064;-69
2022/11/27 03:01:05;;;;;;;12.00;4.20;;;;;;;14.47;50.64;102271.50;5051593;28;20025;-69
2022/11/27 03:03:44;;;;;;;19.43;5.50;;;;;;;14.40;51.21;102250.44;5051704;28;20057;-69
2022/11/27 03:06:22;;;;;;;13.67;4.00;;;;;;;14.28;50.82;102260.16;5050491;28;20122;-69
2022/11/27 03:09:02;;;;;;;12.07;4.20;;;;;;;14.33;50.12;102259.25;5048807;28;20029;-69
2022/11/27 03:11:30;;;;;;;12.20;3.13;;;;;;;13.40;51.91;102269.84;5049810;28;20029;-69
2022/11/27 03:14:04;;;;;;;10.37;3.40;;;;;;;13.82;52.66;102272.50;5051500;28;20522;-69
2022/11/27 03:16:58;;;;;;;16.40;4.23;;;;;;;15.17;49.33;102264.16;5049751;28;20043;-69
2022/11/27 03:19:44;;;;;;;13.37;3.27;;;;;;;14.98;49.61;102256.38;5047156;28;20397;-69
2022/11/27 03:22:11;;;;;;;10.23;3.37;;;;;;;14.22;50.09;102271.56;5069421;28;20052;-69
2022/11/27 03:24:36;;;;;;;13.90;4.00;;;;;;;14.71;50.06;102255.63;5050795;28;20061;-69
2022/11/27 03:27:02;;;;;;;16.87;3.40;;;;;;;14.80;49.85;102253.84;5051201;28;20051;-69
2022/11/27 03:29:50;;;;;;;12.03;3.13;;;;;;;15.21;49.04;102250.09;5046277;28;21990;-69
2022/11/27 03:32:17;;;;;;;10.33;4.13;;;;;;;14.81;49.54;102250.31;5045884;28;20021;-69
2022/11/27 03:34:43;;;;;;;10.70;3.47;;;;;;;15.05;48.54;102249.31;5051226;28;20056;-69
2022/11/27 03:37:09;;;;;;;11.37;3.57;;;;;;;13.58;52.14;102257.59;5050428;28;20430;-69
2022/11/27 03:39:35;;;;;;;13.23;3.50;;;;;;;13.91;51.99;102255.84;5077468;28;20055;-69
2022/11/27 03:42:13;;;;;;;13.27;3.57;;;;;;;14.52;50.84;102253.91;5048888;28;20486;-69
2022/11/27 03:44:52;;;;;;;12.43;3.13;;;;;;;13.80;52.43;102244.47;5048719;28;20056;-70
2022/11/27 03:47:39;;;;;;;11.07;3.40;;;;;;;13.71;52.59;102248.84;5050876;28;20028;-69
2022/11/27 03:50:23;;;;;;;12.60;3.77;;;;;;;13.83;51.69;102252.34;5047448;28;20041;-69
2022/11/27 03:53:22;;;;;;;8.20;2.90;;;;;;;14.23;51.97;102241.72;5048183;28;20060;-69
2022/11/27 03:56:00;;;;;;;7.53;2.93;;;;;;;14.39;50.60;102246.06;5051180;28;20035;-69
2022/11/27 03:58:34;;;;;;;7.13;2.53;;;;;;;14.30;51.23;102254.00;5080875;28;20037;-68
2022/11/27 04:01:02;;;;;;;15.20;4.20;;;;;;;14.69;50.54;102251.25;5047022;28;20112;-69
2022/11/27 04:03:29;;;;;;;14.07;3.53;;;;;;;14.49;50.72;102244.28;5048993;28;20094;-69
2022/11/27 04:05:55;;;;;;;11.13;3.17;;;;;;;14.95;49.66;102247.59;5051570;28;20044;-69
2022/11/27 04:08:21;;;;;;;8.27;3.20;;;;;;;14.28;50.74;102253.13;5048039;28;20021;-69
2022/11/27 04:10:47;;;;;;;8.17;3.10;;;;;;;14.25;50.59;102250.50;5047802;28;20060;-69
2022/11/27 04:13:12;;;;;;;10.83;2.90;;;;;;;14.23;50.67;102252.25;5048404;28;20434;-69
2022/11/27 04:15:37;;;;;;;8.73;3.00;;;;;;;14.37;50.46;102250.47;5047938;28;20512;-69
2022/11/27 04:18:03;;;;;;;6.70;2.60;;;;;;;14.54;50.35;102242.50;5049665;28;20039;-69
2022/11/27 04:20:31;;;;;;;9.53;3.03;;;;;;;14.39;50.30;102232.06;5049631;28;20479;-69
2022/11/27 04:22:57;;;;;;;11.67;2.93;;;;;;;14.23;50.61;102233.84;5047539;28;21161;-69
2022/11/27 04:25:22;;;;;;;8.23;2.80;;;;;;;14.07;50.80;102226.00;5048742;28;20116;-69
2022/11/27 04:27:48;;;;;;;9.40;2.73;;;;;;;13.97;51.95;102240.06;5049627;28;20357;-69
2022/11/27 04:30:14;;;;;;;7.93;2.77;;;;;;;14.00;51.66;102239.16;5048593;28;20111;-69
2022/11/27 04:32:39;;;;;;;7.97;2.40;;;;;;;13.69;52.57;102242.69;5079484;28;20119;-69
2022/11/27 04:35:05;;;;;;;7.27;2.57;;;;;;;14.18;51.96;102235.63;5048672;28;20486;-69
2022/11/27 04:37:30;;;;;;;6.13;2.53;;;;;;;14.22;51.48;102225.09;5049124;28;20025;-70
2022/11/27 04:39:56;;;;;;;8.97;3.67;;;;;;;14.17;52.35;102229.47;5048544;28;20042;-68
2022/11/27 04:42:22;;;;;;;11.63;3.57;;;;;;;13.34;55.14;102233.06;5046807;28;20017;-70
2022/11/27 04:44:47;;;;;;;14.23;3.70;;;;;;;14.00;53.71;102219.03;5044837;28;20025;-70
2022/11/27 04:47:12;;;;;;;7.23;2.43;;;;;;;13.48;54.54;102213.84;5049664;28;20485;-70
2022/11/27 04:49:38;;;;;;;9.17;3.17;;;;;;;14.45;52.05;102216.22;5081643;28;20367;-70
2022/11/27 04:52:03;;;;;;;11.37;3.50;;;;;;;14.74;51.37;102213.50;5048416;28;20498;-70
2022/11/27 04:54:29;;;;;;;10.87;3.23;;;;;;;14.36;52.54;102222.41;5046275;28;20025;-69
2022/11/27 04:56:54;;;;;;;11.10;3.23;;;;;;;13.84;53.96;102201.53;5046193;28;20025;-70
2022/11/27 04:59:20;;;;;;;11.80;3.00;;;;;;;14.07;53.66;102198.84;5050383;28;20490;-70
2022/11/27 05:01:45;;;;;;;7.73;3.00;;;;;;;14.29;53.72;102204.91;5048007;28;20104;-70
2022/11/27 05:04:10;;;;;;;6.37;2.83;;;;;;;14.29;54.10;102204.03;5081901;28;20060;-70
2022/11/27 05:06:36;;;;;;;8.50;3.10;;;;;;;13.40;56.39;102198.06;5043190;28;20029;-70
2022/11/27 05:09:01;;;;;;;13.17;3.07;;;;;;;14.26;54.41;102191.78;5048804;28;20497;-70
2022/11/27 05:11:29;;;;;;;8.67;2.80;;;;;;;14.63;52.39;102194.28;5048113;28;20424;-70
2022/11/27 05:16:38;;;;;;;7.50;2.67;;;;;;;13.88;54.13;102187.50;5048035;28;20040;-70
2022/11/27 05:19:04;;;;;;;10.83;2.83;;;;;;;14.33;53.70;102175.09;5049280;28;20029;-70
2022/11/27 05:21:29;;;;;;;9.30;2.80;;;;;;;14.35;52.39;102178.56;5049900;28;20057;-70
2022/11/27 05:23:54;;;;;;;7.63;3.10;;;;;;;15.03;51.73;102174.69;5047305;28;20033;-70
2022/11/27 05:26:20;;;;;;;7.97;2.93;;;;;;;13.95;53.62;102178.72;5045602;28;20036;-70
2022/11/27 05:28:45;;;;;;;8.97;3.23;;;;;;;14.42;52.15;102177.69;5052238;28;20036;-70
2022/11/27 05:31:11;;;;;;;6.83;3.33;;;;;;;13.64;54.57;102185.78;5053182;28;20482;-69
2022/11/27 05:33:36;;;;;;;9.80;3.10;;;;;;;13.38;54.92;102182.31;5049939;28;20036;-69
2022/11/27 05:36:01;;;;;;;8.97;2.97;;;;;;;14.35;52.68;102165.41;5051903;28;20024;-69
2022/11/27 05:38:27;;;;;;;11.47;3.27;;;;;;;14.33;53.06;102163.66;5053073;28;20028;-70
2022/11/27 05:40:52;;;;;;;6.93;3.27;;;;;;;13.80;54.21;102165.63;5085847;28;20025;-69
2022/11/27 05:43:17;;;;;;;6.50;2.83;;;;;;;13.83;54.48;102168.22;5051528;28;20376;-69
2022/11/27 05:45:43;;;;;;;10.80;3.33;;;;;;;13.65;55.53;102161.28;5050871;28;20033;-70
2022/11/27 05:48:08;;;;;;;12.17;3.07;;;;;;;14.10;53.87;102158.53;5050436;28;20033;-70
2022/11/27 05:50:34;;;;;;;9.17;3.10;;;;;;;14.31;53.20;102155.78;5051963;28;20024;-70
2022/11/27 05:52:59;;;;;;;9.40;2.87;;;;;;;14.28;52.65;102158.44;5050723;28;20098;-69
2022/11/27 05:55:24;;;;;;;8.00;2.80;;;;;;;14.12;53.09;102154.13;5052919;28;20083;-69
2022/11/27 05:57:50;;;;;;;6.33;2.77;;;;;;;14.19;53.68;102147.97;5083857;28;20056;-70
2022/11/27 06:00:16;;;;;;;13.70;3.03;;;;;;;13.84;54.54;102149.84;5050763;28;20035;-70
2022/11/27 06:02:41;;;;;;;9.40;3.00;;;;;;;14.03;53.77;102150.66;5050847;28;20067;-70
2022/11/27 06:05:07;;;;;;;11.37;2.90;;;;;;;13.67;54.59;102149.88;5051299;28;20498;-69
2022/11/27 06:07:32;;;;;;;9.50;3.37;;;;;;;14.27;53.98;102138.28;5051092;28;20024;-70
2022/11/27 06:09:58;;;;;;;9.87;3.60;;;;;;;14.13;53.91;102143.59;5083852;28;20029;-70
2022/11/27 06:12:23;;;;;;;8.07;3.00;;;;;;;14.73;52.44;102140.69;5053334;28;20482;-70
2022/11/27 06:14:48;;;;;;;11.13;3.53;;;;;;;14.13;53.20;102134.84;5049931;28;20470;-70
2022/11/27 06:17:15;;;;;;;13.47;3.27;;;;;;;14.25;52.72;102134.78;5052441;28;20422;-69
2022/11/27 06:19:41;;;;;;;6.87;2.53;;;;;;;14.39;53.16;102130.31;5048558;28;20028;-70
2022/11/27 06:22:07;;;;;;;8.33;2.87;;;;;;;15.13;51.14;102131.63;5051141;28;20025;-69
2022/11/27 06:24:32;;;;;;;9.27;2.80;;;;;;;13.80;54.39;102136.72;5051471;28;20052;-70
2022/11/27 06:26:58;;;;;;;4.63;2.60;;;;;;;14.23;53.28;102126.91;5051572;28;20051;-69
2022/11/27 06:29:23;;;;;;;9.83;3.40;;;;;;;13.82;53.99;102129.69;5049690;28;20067;-69
2022/11/27 06:31:48;;;;;;;7.07;3.07;;;;;;;13.61;55.36;102125.38;5050593;28;20462;-70
2022/11/27 06:34:14;;;;;;;9.03;3.30;;;;;;;14.41;53.08;102128.59;5052906;28;20032;-69
2022/11/27 06:36:40;;;;;;;12.83;3.27;;;;;;;14.08;54.71;102119.97;5067206;28;20029;-69
2022/11/27 06:39:07;;;;;;;8.63;2.90;;;;;;;13.11;58.05;102124.53;5050493;28;20025;-70
2022/11/27 06:41:32;;;;;;;6.57;2.67;;;;;;;13.90;55.84;102117.41;5051198;28;20017;-69
2022/11/27 06:43:59;;;;;;;13.20;3.00;;;;;;;13.71;55.23;102117.47;5050828;28;20017;-69
2022/11/27 06:46:25;;;;;;;6.67;3.30;;;;;;;14.64;53.16;102116.19;5050504;28;20032;-69
2022/11/27 06:48:52;;;;;;;11.07;3.53;;;;;;;13.87;55.75;102105.13;5049708;28;20072;-69
2022/11/27 06:51:21;;;;;;;7.03;3.30;;;;;;;13.36;55.96;102105.25;5050054;28;20036;-69
2022/11/27 06:53:47;;;;;;;5.70;3.13;;;;;;;14.51;53.21;102094.34;5050632;28;20033;-70
2022/11/27 06:56:16;;;;;;;11.67;3.60;;;;;;;13.72;54.22;102097.31;5051882;28;20122;-69
2022/11/27 06:58:42;;;;;;;11.07;3.37;;;;;;;13.84;54.63;102085.91;5049448;28;20028;-69
2022/11/27 07:01:13;;;;;;;10.47;3.20;;;;;;;14.18;54.04;102085.75;5050837;28;20032;-69
2022/11/27 07:03:39;;;;;;;10.67;3.30;;;;;;;14.19;53.10;102071.69;5049989;28;20044;-69
2022/11/27 07:06:06;;;;;;;7.17;3.40;;;;;;;13.69;54.36;102077.16;5049914;28;20040;-69
2022/11/27 07:08:32;;;;;;;11.03;2.93;;;;;;;13.56;55.04;102071.09;5051724;28;20025;-69
2022/11/27 07:11:06;;;;;;;10.50;4.17;;;;;;;14.83;52.26;102061.69;5049330;28;20056;-69
2022/11/27 07:13:32;;;;;;;9.33;3.20;;;;;;;14.45;52.74;102062.78;5044430;28;20082;-69
2022/11/27 07:16:02;;;;;;;9.37;3.00;;;;;;;14.54;52.26;102062.72;5054820;28;20485;-69
2022/11/27 07:18:29;;;;;;;9.17;3.43;;;;;;;14.29;53.92;102062.91;5071402;28;20021;-69
2022/11/27 07:20:55;;;;;;;9.63;3.80;;;;;;;13.83;54.54;102063.13;5053072;28;20039;-69
2022/11/27 07:23:21;;;;;;;7.97;4.07;;;;;;;14.52;53.36;102057.50;5050533;28;20067;-69
2022/11/27 07:25:47;;;;;;;9.67;3.30;;;;;;;13.94;53.71;102050.78;5048118;28;20513;-69
2022/11/27 07:28:12;;;;;;;11.23;3.90;;;;;;;13.61;54.80;102051.81;5050615;28;20021;-68
2022/11/27 07:30:38;;;;;;;10.93;3.63;;;;;;;13.77;55.29;102044.75;5051119;28;20542;-69
2022/11/27 07:33:03;;;;;;;11.03;3.60;;;;;;;13.73;55.34;102046.50;5049153;28;20029;-69
2022/11/27 07:35:29;;;;;;;8.37;3.63;;;;;;;13.99;54.73;102035.88;5048696;28;20040;-69
2022/11/27 07:37:54;;;;;;;8.53;4.13;;;;;;;13.80;54.94;102036.84;5049960;28;20099;-69
2022/11/27 07:40:20;;;;;;;11.83;4.07;;;;;;;13.99;54.20;102038.50;5048635;28;20060;-69
2022/11/27 07:42:45;;;;;;;8.23;4.20;;;;;;;14.45;53.16;102033.84;5047385;28;20469;-68
2022/11/27 07:45:11;;;;;;;11.47;4.60;;;;;;;13.59;53.98;102038.69;5047618;28;20052;-69
2022/11/27 07:47:37;;;;;;;7.57;4.10;;;;;;;14.45;53.03;102047.00;5050473;28;20039;-69
2022/11/27 07:50:04;;;;;;;14.60;4.00;;;;;;;14.56;51.87;102045.16;5051362;28;20501;-69
2022/11/27 07:52:29;;;;;;;8.53;4.47;;;;;;;13.40;55.15;102049.22;5048876;28;20110;-69
2022/11/27 07:54:55;;;;;;;14.60;5.33;;;;;;;13.83;54.96;102047.34;5049209;28;20063;-69
2022/11/27 07:57:20;;;;;;;9.00;4.03;;;;;;;14.12;52.94;102049.81;5051567;28;20063;-69
2022/11/27 07:59:46;;;;;;;8.17;4.77;;;;;;;13.81;55.92;102038.63;5050771;28;20037;-69
2022/11/27 08:02:12;;;;;;;13.77;4.00;;;;;;;14.28;53.80;102029.56;5049758;28;20685;-69
2022/11/27 08:04:37;;;;;;;9.30;3.73;;;;;;;14.54;52.21;102034.66;5082954;28;20036;-69
2022/11/27 08:07:03;;;;;;;5.87;4.23;;;;;;;13.54;54.67;102040.44;5049450;28;20033;-68
2022/11/27 08:09:29;;;;;;;11.90;4.43;;;;;;;14.34;54.07;102026.03;5047413;28;20523;-69
2022/11/27 08:11:54;;;;;;;14.77;4.23;;;;;;;13.29;55.88;102034.38;5044321;28;20032;-69
2022/11/27 08:14:19;;;;;;;11.67;4.03;;;;;;;14.08;54.61;102027.94;5052505;28;20087;-69
2022/11/27 08:16:45;;;;;;;10.63;4.03;;;;;;;13.94;54.85;102023.66;5048799;28;20021;-69
2022/11/27 08:19:10;;;;;;;7.07;3.60;;;;;;;13.65;54.65;102027.28;5050107;28;20342;-69
2022/11/27 08:21:36;;;;;;;8.70;4.53;;;;;;;13.07;57.50;102023.91;5049357;28;20021;-69
2022/11/27 08:24:01;;;;;;;11.63;4.07;;;;;;;13.53;55.94;102022.94;5049141;28;20025;-69
2022/11/27 08:26:27;;;;;;;8.80;4.23;;;;;;;14.01;55.39;102026.25;5055021;28;20175;-69
2022/11/27 08:28:53;;;;;;;10.33;3.90;;;;;;;12.97;58.17;102028.28;5030429;28;20029;-69
2022/11/27 08:31:19;;;;;;;12.57;4.27;;;;;;;13.78;55.87;102028.09;5026411;28;20402;-67
2022/11/27 08:33:45;;;;;;;12.63;5.13;;;;;;;13.12;58.57;102027.41;5038623;28;20489;-67
2022/11/27 08:36:10;;;;;;;13.10;5.00;;;;;;;14.03;56.44;102029.72;5050029;28;20025;-67
2022/11/27 08:38:36;;;;;;;13.07;4.77;;;;;;;14.26;55.21;102031.38;5047184;28;20047;-71
2022/11/27 08:41:03;;;;;;;12.97;4.03;;;;;;;14.08;54.58;102027.06;5045009;28;20013;-70
2022/11/27 08:43:30;;;;;;;10.20;4.00;;;;;;;13.47;57.84;102029.06;5048745;28;20032;-70
2022/11/27 08:45:56;;;;;;;9.10;4.30;;;;;;;14.20;55.78;102023.50;5065236;28;20101;-69
2022/11/27 08:48:22;;;;;;;13.07;4.47;;;;;;;14.38;54.94;102030.38;5047763;28;20037;-67
2022/11/27 08:50:49;;;;;;;15.13;5.00;;;;;;;14.50;54.96;102032.94;5049994;28;20029;-67
2022/11/27 08:53:15;;;;;;;12.60;5.10;;;;;;;14.01;55.23;102030.63;5046807;28;20189;-68
2022/11/27 08:55:40;;;;;;;13.90;5.53;;;;;;;14.37;54.91;102031.25;5047229;28;20039;-68
2022/11/27 08:58:06;;;;;;;10.97;5.00;;;;;;;13.25;58.14;102038.72;5046623;28;20370;-68
2022/11/27 09:00:33;;;;;;;13.73;4.73;;;;;;;13.58;57.26;102026.41;5064427;28;20041;-68
2022/11/27 09:02:59;;;;;;;18.27;4.67;;;;;;;14.15;56.36;102027.91;5037152;28;20047;-68
2022/11/27 09:05:26;;;;;;;15.83;5.33;;;;;;;14.17;56.33;102016.50;5038286;28;20025;-68
2022/11/27 09:07:51;;;;;;;11.17;4.43;;;;;;;13.87;57.15;102017.53;5065399;28;20402;-68
2022/11/27 09:10:17;;;;;;;13.60;5.67;;;;;;;14.02;57.15;102014.81;5047967;28;20024;-68
2022/11/27 09:12:45;;;;;;;13.70;5.43;;;;;;;13.70;57.73;102021.13;5050941;28;20026;-68
2022/11/27 09:15:12;;;;;;;18.10;5.30;;;;;;;14.24;55.73;102012.06;5044129;28;20135;-68
2022/11/27 09:17:37;;;;;;;13.37;4.90;;;;;;;14.58;55.16;102006.56;5052080;28;20117;-68
2022/11/27 09:20:04;;;;;;;14.10;4.87;;;;;;;13.91;56.26;102014.88;5046558;28;20482;-68
2022/11/27 09:22:29;;;;;;;12.27;5.47;;;;;;;14.52;56.07;102006.59;5047613;28;20025;-68
2022/11/27 09:24:55;;;;;;;11.10;5.63;;;;;;;14.60;54.37;101999.53;5046838;28;20040;-68
2022/11/27 09:27:20;;;;;;;13.63;5.30;;;;;;;14.52;54.92;102001.34;5047894;28;20232;-68
2022/11/27 09:29:46;;;;;;;14.93;5.17;;;;;;;14.82;54.78;101994.13;5048078;28;20563;-68
2022/11/27 09:32:11;;;;;;;14.10;5.53;;;;;;;14.55;55.79;101990.81;5045611;28;20517;-68
2022/11/27 09:34:36;;;;;;;17.50;5.60;;;;;;;14.34;56.86;101998.00;5046244;28;20125;-68
2022/11/27 09:37:04;;;;;;;15.93;6.57;;;;;;;14.50;55.64;101989.97;5050840;28;20048;-68
2022/11/27 09:39:32;;;;;;;11.93;4.73;;;;;;;14.62;56.46;101989.88;5047319;28;20100;-68
2022/11/27 09:42:00;;;;;;;17.17;6.50;;;;;;;14.39;55.33;101996.19;5047531;28;20021;-69
2022/11/27 09:44:52;;;;;;;12.87;6.30;;;;;;;14.40;56.24;101983.91;5047880;28;20029;-68
2022/11/27 09:47:21;;;;;;;16.27;5.80;;;;;;;14.57;55.26;101983.78;5047590;28;20389;-68
2022/11/27 09:50:12;;;;;;;13.97;5.73;;;;;;;14.93;54.89;101982.59;5046513;28;20111;-68
2022/11/27 09:52:55;;;;;;;13.93;5.53;;;;;;;13.81;59.09;101978.16;5044063;28;20489;-68
2022/11/27 09:55:36;;;;;;;15.60;7.15;;;;;;;13.96;56.89;101975.44;5029498;28;20033;-68
2022/11/27 09:58:05;;;;;;;12.60;6.00;;;;;;;14.78;54.78;101971.34;5030396;28;20033;-68
2022/11/27 10:00:31;;;;;;;15.37;5.77;;;;;;;14.93;54.44;101976.44;5051196;28;20114;-68
2022/11/27 10:02:56;;;;;;;18.23;7.40;;;;;;;14.06;57.46;101977.13;5045626;28;20064;-68
2022/11/27 10:05:25;;;;;;;14.60;5.93;;;;;;;14.96;54.66;101973.81;5048621;28;20060;-69
2022/11/27 10:08:24;;;;;;;16.00;5.93;;;;;;;14.68;55.07;101971.41;5048648;28;20372;-69
2022/11/27 10:11:09;;;;;;;16.33;5.63;;;;;;;13.83;58.64;101963.25;5040363;28;20036;-69
2022/11/27 10:13:46;;;;;;;15.90;5.83;;;;;;;15.28;53.65;101962.03;5045581;28;20040;-68
2022/11/27 10:16:20;;;;;;;13.47;6.33;;;;;;;15.06;53.98;101967.53;5037966;28;20029;-68
2022/11/27 10:19:01;;;;;;;14.97;5.63;;;;;;;14.56;56.15;101960.97;5052042;28;20119;-68
2022/11/27 10:21:52;;;;;;;18.07;6.37;;;;;;;14.70;55.44;101959.13;5050512;28;20059;-68
2022/11/27 10:24:22;;;;;;;14.33;5.40;;;;;;;14.84;56.09;101960.78;5048796;28;20033;-68
2022/11/27 10:26:52;;;;;;;11.67;6.30;;;;;;;15.33;54.02;101948.81;5050955;28;20044;-68
2022/11/27 10:29:42;;;;;;;14.73;5.20;;;;;;;14.45;56.37;101947.03;5052974;28;20032;-68
2022/11/27 10:32:21;;;;;;;14.33;6.30;;;;;;;14.80;54.76;101951.16;5049845;28;20464;-68
2022/11/27 10:35:10;;;;;;;16.77;6.53;;;;;;;14.81;56.26;101942.34;5051281;28;20158;-68
2022/11/27 10:37:41;;;;;;;12.63;6.10;;;;;;;14.96;55.33;101943.97;5046525;28;20465;-68
2022/11/27 10:40:14;;;;;;;18.33;5.90;;;;;;;14.61;56.79;101940.75;5051593;28;20037;-68
2022/11/27 10:42:58;;;;;;;13.97;5.60;;;;;;;14.97;55.33;101941.31;5049666;28;20033;-68
2022/11/27 10:45:51;;;;;;;13.53;5.50;;;;;;;14.84;55.38;101934.44;5074250;28;20037;-68
2022/11/27 10:48:16;;;;;;;13.43;5.57;;;;;;;14.46;56.81;101938.28;5042487;28;20047;-67
2022/11/27 10:50:44;;;;;;;13.43;6.30;;;;;;;13.72;58.34;101930.03;5085055;28;20112;-68
2022/11/27 10:53:30;;;;;;;14.70;5.63;;;;;;;14.23;58.41;101927.06;5049530;28;20043;-67
2022/11/27 10:56:11;;;;;;;16.40;6.70;;;;;;;14.69;55.07;101931.06;5066901;28;20028;-68
2022/11/27 10:58:59;;;;;;;16.60;6.20;;;;;;;15.05;55.21;101912.28;5054796;28;20078;-68
2022/11/27 11:01:28;;;;;;;17.97;6.27;;;;;;;15.35;54.88;101902.25;5051038;28;20021;-67
2022/11/27 11:04:07;;;;;;;11.90;6.30;;;;;;;14.46;56.82;101890.94;5051875;28;20521;-67
2022/11/27 11:06:38;;;;;;;12.77;6.30;;;;;;;14.50;57.14;101887.38;5050508;28;20020;-67
2022/11/27 11:09:28;;;;;;;15.63;7.00;;;;;;;14.76;56.10;101887.16;5051220;28;20037;-67
2022/11/27 11:12:23;;;;;;;15.37;6.30;;;;;;;14.41;55.82;101878.69;5043777;28;20014;-67
2022/11/27 11:14:59;;;;;;;13.70;6.70;;;;;;;14.14;57.48;101876.31;5057297;28;20021;-67
2022/11/27 11:17:33;;;;;;;13.70;6.50;;;;;;;15.02;56.62;101875.47;5052187;28;20106;-67
2022/11/27 11:19:59;;;;;;;10.10;5.77;;;;;;;13.46;60.76;101879.38;5052009;28;20022;-67
2022/11/27 11:22:26;;;;;;;16.87;6.03;;;;;;;14.62;56.63;101879.38;5050009;28;20028;-67
2022/11/27 11:24:52;;;;;;;15.83;6.77;;;;;;;14.80;56.25;101880.09;5047577;28;20697;-67
2022/11/27 11:27:22;;;;;;;12.57;5.40;;;;;;;14.65;56.99;101870.59;5050030;28;20025;-67
2022/11/27 11:29:53;;;;;;;13.93;5.77;;;;;;;14.64;57.86;101874.97;5048896;28;20112;-69
2022/11/27 11:32:19;;;;;;;15.65;6.32;;;;;;;14.29;58.37;101870.03;5064879;28;20397;-69